Time;durP1;ratioP1;P1;durP2;ratioP2;P2;SDS_P1;SDS_P2;PMS_P1;PMS_P2;Temp;Humidity;BMP_temperature;BMP_pressure;BME280_temperature;BME280_humidity;BME280_pressure;Samples;Min_cycle;Max_cycle;Signal;HPM_P1;HPM_P2
2021/12/17 00:00:33;;;;;;;16.05;9.43;;;10.60;97.20;;;;;;5081311;28;20032;-74
2021/12/17 00:03:16;;;;;;;14.82;10.35;;;10.60;97.30;;;;;;5082806;28;20412;-74
2021/12/17 00:06:07;;;;;;;14.15;10.50;;;10.60;97.40;;;;;;5067648;28;20021;-75
2021/12/17 00:08:29;;;;;;;16.95;10.55;;;10.60;97.50;;;;;;5068471;28;20227;-72
2021/12/17 00:10:55;;;;;;;14.65;9.43;;;10.60;97.40;;;;;;5082294;28;20025;-74
2021/12/17 00:13:21;;;;;;;15.40;10.43;;;10.60;97.30;;;;;;5083530;28;20270;-74
2021/12/17 00:15:47;;;;;;;15.02;10.10;;;10.60;97.30;;;;;;5083633;28;20040;-73
2021/12/17 00:18:21;;;;;;;14.20;9.38;;;10.60;97.20;;;;;;5081377;28;20040;-73
2021/12/17 00:48:42;;;;;;;10.88;7.55;;;10.60;97.30;;;;;;5075154;28;20029;-74
2021/12/17 00:51:46;;;;;;;13.43;7.03;;;10.50;97.30;;;;;;5061938;28;20033;-74
2021/12/17 00:54:01;;;;;;;;;;;10.50;97.30;;;;;;5075950;28;20052;-74
2021/12/17 00:56:27;;;;;;;10.07;6.20;;;10.40;97.40;;;;;;5061991;28;19940;-72
2021/12/17 00:58:54;;;;;;;14.13;7.07;;;10.40;97.40;;;;;;5062126;28;20037;-73
2021/12/17 01:01:20;;;;;;;9.55;6.57;;;10.40;97.40;;;;;;5059103;28;20398;-74
2021/12/17 01:03:47;;;;;;;10.55;6.35;;;10.40;97.40;;;;;;5061998;28;20021;-73
2021/12/17 01:06:12;;;;;;;12.18;7.00;;;10.50;97.60;;;;;;5062085;28;20323;-72
2021/12/17 01:08:39;;;;;;;11.43;7.28;;;10.40;97.60;;;;;;5060211;28;20031;-73
2021/12/17 01:11:06;;;;;;;10.18;6.68;;;10.50;97.40;;;;;;5077955;28;20248;-73
2021/12/17 01:13:34;;;;;;;11.13;6.93;;;10.40;97.50;;;;;;5060398;28;20327;-73
2021/12/17 01:16:00;;;;;;;11.25;6.93;;;10.40;97.60;;;;;;5061095;28;20033;-74
2021/12/17 01:18:39;;;;;;;10.50;6.75;;;10.40;97.60;;;;;;5061737;28;20080;-74
2021/12/17 01:21:24;;;;;;;9.45;6.35;;;10.40;97.70;;;;;;5076935;28;20232;-73
2021/12/17 01:38:53;;;;;;;11.70;7.78;;;10.50;97.70;;;;;;5079989;28;20060;-75
2021/12/17 01:40:56;;;;;;;11.50;7.45;;;10.50;97.60;;;;;;5080210;28;20049;-75
2021/12/17 01:43:17;;;;;;;13.63;8.43;;;10.50;97.60;;;;;;5079652;28;20036;-74
2021/12/17 01:45:43;;;;;;;13.00;8.07;;;10.50;97.70;;;;;;5079940;28;20031;-73
2021/12/17 01:48:15;;;;;;;12.10;7.60;;;10.50;97.70;;;;;;5079997;28;20036;-73
2021/12/17 02:01:44;;;;;;;16.40;9.10;;;10.60;97.70;;;;;;5079394;28;20029;-72
2021/12/17 02:04:10;;;;;;;15.00;9.27;;;10.60;97.80;;;;;;5079048;28;20066;-74
2021/12/17 02:06:37;;;;;;;14.65;10.18;;;10.60;97.70;;;;;;5079638;28;20028;-73
2021/12/17 02:09:31;;;;;;;16.02;9.73;;;10.60;97.70;;;;;;5080861;28;20032;-73
2021/12/17 02:12:26;;;;;;;14.75;10.13;;;10.60;98.00;;;;;;5079196;28;20048;-74
2021/12/17 02:21:21;;;;;;;17.05;10.88;;;10.60;98.10;;;;;;5077823;28;20052;-74
2021/12/17 02:32:08;;;;;;;16.90;10.93;;;10.60;98.40;;;;;;5079206;28;20043;-73
2021/12/17 02:37:25;;;;;;;19.15;11.30;;;10.50;98.30;;;;;;5079011;28;20259;-74
2021/12/17 02:45:31;;;;;;;19.40;11.15;;;10.40;98.30;;;;;;5078604;28;20032;-73
2021/12/17 02:45:32;;;;;;;18.25;10.35;;;10.40;98.00;;;;;;5079041;28;20028;-72
2021/12/17 02:48:09;;;;;;;15.82;9.90;;;10.30;97.80;;;;;;5078910;28;20379;-73
2021/12/17 02:50:40;;;;;;;13.68;9.05;;;10.30;97.90;;;;;;5079232;28;20027;-74
2021/12/17 02:53:08;;;;;;;13.43;9.43;;;10.30;98.00;;;;;;5078318;28;20141;-74
2021/12/17 02:55:36;;;;;;;16.73;10.50;;;10.30;97.90;;;;;;5078038;28;20027;-73
2021/12/17 02:58:04;;;;;;;14.50;9.68;;;10.30;98.00;;;;;;5078830;28;20062;-74
2021/12/17 03:00:30;;;;;;;17.40;10.05;;;10.30;98.10;;;;;;5078399;28;20115;-74
2021/12/17 03:02:56;;;;;;;16.88;10.45;;;10.30;98.20;;;;;;5076617;28;20028;-74
2021/12/17 03:05:24;;;;;;;15.60;9.57;;;10.30;98.10;;;;;;5079892;28;20031;-73
2021/12/17 03:07:50;;;;;;;13.93;9.77;;;10.20;98.30;;;;;;5061831;28;20036;-74
2021/12/17 03:10:16;;;;;;;18.35;10.45;;;10.30;98.30;;;;;;5078529;28;20042;-74
2021/12/17 03:12:48;;;;;;;17.55;10.52;;;10.20;98.40;;;;;;5079040;28;20316;-73
2021/12/17 03:15:22;;;;;;;16.60;9.20;;;10.30;98.40;;;;;;5078718;28;20035;-73
2021/12/17 03:23:40;;;;;;;14.05;8.65;;;10.20;98.10;;;;;;5065407;28;20214;-72
2021/12/17 03:26:07;;;;;;;;;;;10.20;98.10;;;;;;5080805;28;20370;-74
2021/12/17 03:28:33;;;;;;;13.23;8.25;;;10.20;98.10;;;;;;5061793;28;20099;-74
2021/12/17 03:31:00;;;;;;;13.55;8.80;;;10.30;98.00;;;;;;5079240;28;20032;-73
2021/12/17 03:33:27;;;;;;;18.42;9.00;;;10.20;98.10;;;;;;5078087;28;20082;-73
2021/12/17 03:35:53;;;;;;;12.02;8.10;;;10.20;98.20;;;;;;5078107;28;20204;-74
2021/12/17 03:38:19;;;;;;;14.23;9.02;;;10.20;98.20;;;;;;5077887;28;20121;-72
2021/12/17 03:40:46;;;;;;;13.65;9.05;;;10.20;98.20;;;;;;5078470;28;20063;-73
2021/12/17 03:43:20;;;;;;;13.80;8.82;;;10.20;98.30;;;;;;5061392;28;20409;-74
2021/12/17 03:45:46;;;;;;;13.65;8.88;;;10.30;98.30;;;;;;5078044;28;20088;-73
2021/12/17 03:48:11;;;;;;;10.02;7.25;;;10.30;98.20;;;;;;5079370;28;20075;-73
2021/12/17 03:50:37;;;;;;;11.93;8.02;;;10.30;97.50;;;;;;5079083;28;20028;-73
2021/12/17 03:53:05;;;;;;;13.95;8.45;;;10.30;97.80;;;;;;5078681;28;20315;-73
2021/12/17 03:55:30;;;;;;;17.10;8.85;;;10.20;97.90;;;;;;5077539;28;20044;-73
2021/12/17 03:57:59;;;;;;;11.13;7.65;;;10.20;98.00;;;;;;5079811;28;20055;-73
2021/12/17 04:00:25;;;;;;;15.38;7.78;;;10.20;98.00;;;;;;5078926;28;20469;-73
2021/12/17 04:02:51;;;;;;;13.15;8.55;;;10.20;98.10;;;;;;5077642;28;20059;-73
2021/12/17 04:05:16;;;;;;;13.02;8.32;;;10.20;98.00;;;;;;5077811;28;20320;-73
2021/12/17 04:07:42;;;;;;;11.93;8.30;;;10.20;98.00;;;;;;5061452;28;20131;-72
2021/12/17 04:10:09;;;;;;;10.43;7.90;;;10.20;98.10;;;;;;5078803;28;20077;-73
2021/12/17 04:12:48;;;;;;;11.40;8.10;;;10.20;98.00;;;;;;5077693;28;20036;-74
2021/12/17 04:15:15;;;;;;;14.70;8.23;;;10.20;97.90;;;;;;5077847;28;20032;-72
2021/12/17 04:17:46;;;;;;;12.55;8.60;;;10.20;97.90;;;;;;5077818;28;20024;-73
2021/12/17 04:20:12;;;;;;;14.00;8.75;;;10.20;97.90;;;;;;5079154;28;20231;-74
2021/12/17 04:22:38;;;;;;;12.50;8.10;;;10.20;97.80;;;;;;5077266;28;20064;-73
2021/12/17 04:25:04;;;;;;;15.63;8.85;;;10.20;98.00;;;;;;5077720;28;20220;-73
2021/12/17 04:27:30;;;;;;;13.90;8.30;;;10.20;98.00;;;;;;5078796;28;20091;-74
2021/12/17 04:29:57;;;;;;;17.27;8.40;;;10.20;98.00;;;;;;5079127;28;20335;-73
2021/12/17 04:32:23;;;;;;;13.23;9.38;;;10.20;97.90;;;;;;5078447;28;20311;-74
2021/12/17 04:34:49;;;;;;;14.63;9.13;;;10.30;98.00;;;;;;5077799;28;20044;-73
2021/12/17 04:37:15;;;;;;;16.17;8.77;;;10.30;98.00;;;;;;5077499;28;20062;-73
2021/12/17 04:39:40;;;;;;;13.93;8.30;;;10.30;97.90;;;;;;5078773;28;20040;-74
2021/12/17 04:42:19;;;;;;;11.10;7.68;;;10.30;97.70;;;;;;5076934;28;20405;-73
2021/12/17 04:44:52;;;;;;;15.50;8.90;;;10.30;97.50;;;;;;5080630;28;20319;-72
2021/12/17 04:58:14;;;;;;;14.70;8.13;;;10.20;97.80;;;;;;5080829;28;20307;-74
2021/12/17 05:00:40;;;;;;;18.67;9.90;;;10.20;97.80;;;;;;5082048;28;20052;-72
2021/12/17 05:03:06;;;;;;;11.88;7.45;;;10.10;97.80;;;;;;5081296;28;20024;-72
2021/12/17 05:05:33;;;;;;;14.77;7.97;;;10.20;97.70;;;;;;5080122;28;20043;-73
2021/12/17 05:08:04;;;;;;;12.10;8.02;;;10.20;97.70;;;;;;5080996;28;20302;-72
2021/12/17 05:18:55;;;;;;;13.57;9.48;;;10.30;98.00;;;;;;5080745;28;20067;-74
2021/12/17 05:21:23;;;;;;;17.35;10.68;;;10.30;98.00;;;;;;5080885;28;20027;-74
2021/12/17 05:23:51;;;;;;;13.20;9.63;;;10.30;98.00;;;;;;5081659;28;20032;-74
2021/12/17 05:26:20;;;;;;;14.32;9.77;;;10.20;97.90;;;;;;5079623;28;20020;-73
2021/12/17 05:28:48;;;;;;;13.57;9.63;;;10.20;97.90;;;;;;5080257;28;20139;-73
2021/12/17 05:31:16;;;;;;;17.38;10.38;;;10.20;98.50;;;;;;5081680;28;20028;-73
2021/12/17 05:33:41;;;;;;;17.15;10.48;;;10.20;98.50;;;;;;5081275;28;20078;-73
2021/12/17 05:36:07;;;;;;;22.38;11.73;;;10.30;98.40;;;;;;5080211;28;20308;-74
2021/12/17 05:38:33;;;;;;;15.27;8.90;;;10.30;98.50;;;;;;5081942;28;20032;-73
2021/12/17 05:40:59;;;;;;;12.98;9.30;;;10.30;97.90;;;;;;5080120;28;20096;-73
2021/12/17 05:43:25;;;;;;;18.77;10.43;;;10.30;98.20;;;;;;5080099;28;20051;-74
2021/12/17 05:46:07;;;;;;;15.90;9.75;;;10.30;98.10;;;;;;5079950;28;20040;-74
2021/12/17 05:48:34;;;;;;;15.82;10.57;;;10.30;97.80;;;;;;5065948;28;20028;-72
2021/12/17 05:51:03;;;;;;;15.93;9.63;;;10.30;97.90;;;;;;5082143;28;20031;-74
2021/12/17 05:53:29;;;;;;;13.95;9.88;;;10.30;97.70;;;;;;5082605;28;20012;-73
2021/12/17 05:55:55;;;;;;;17.05;10.55;;;10.30;97.80;;;;;;5082357;28;20350;-74
2021/12/17 05:58:21;;;;;;;22.23;11.00;;;10.30;98.00;;;;;;5064123;28;20077;-73
2021/12/17 06:00:46;;;;;;;17.90;10.40;;;10.30;97.80;;;;;;5081118;28;20041;-74
2021/12/17 06:03:12;;;;;;;17.52;10.18;;;10.20;97.50;;;;;;5081534;28;20029;-74
2021/12/17 06:05:38;;;;;;;18.73;10.65;;;10.30;97.90;;;;;;5080543;28;20028;-74
2021/12/17 06:08:05;;;;;;;20.02;10.77;;;10.30;98.00;;;;;;5082090;28;20193;-74
2021/12/17 06:10:31;;;;;;;19.52;10.93;;;10.30;97.70;;;;;;5082204;28;20100;-73
2021/12/17 06:12:57;;;;;;;16.65;11.23;;;10.30;97.70;;;;;;5080139;28;20028;-73
2021/12/17 06:15:23;;;;;;;21.23;10.52;;;10.30;97.70;;;;;;5081455;28;20092;-75
2021/12/17 06:17:50;;;;;;;14.48;10.20;;;10.20;97.80;;;;;;5081302;28;20312;-74
2021/12/17 06:20:19;;;;;;;17.35;11.32;;;10.20;97.70;;;;;;5081585;28;20044;-75
2021/12/17 06:22:46;;;;;;;16.92;11.43;;;10.20;97.90;;;;;;5080342;28;20032;-73
2021/12/17 06:25:12;;;;;;;17.58;11.80;;;10.30;98.20;;;;;;5080206;28;20096;-75
2021/12/17 06:27:39;;;;;;;15.85;10.77;;;10.30;97.90;;;;;;5080492;28;20028;-74
2021/12/17 06:30:09;;;;;;;15.60;10.05;;;10.30;97.70;;;;;;5082104;28;20024;-73
2021/12/17 06:32:35;;;;;;;17.00;10.60;;;10.20;97.50;;;;;;5080634;28;20039;-75
2021/12/17 06:35:01;;;;;;;17.08;10.82;;;10.20;97.80;;;;;;5080870;28;20267;-74
2021/12/17 06:37:27;;;;;;;13.55;10.10;;;10.20;97.60;;;;;;5062491;28;20200;-73
2021/12/17 06:39:53;;;;;;;15.27;10.27;;;10.20;97.50;;;;;;5081273;28;20067;-75
2021/12/17 06:42:19;;;;;;;14.65;9.88;;;10.20;97.60;;;;;;5079112;28;20036;-73
2021/12/17 06:44:47;;;;;;;14.68;9.88;;;10.20;97.90;;;;;;5080602;28;20025;-73
2021/12/17 06:47:26;;;;;;;16.25;10.98;;;10.20;97.50;;;;;;5079798;28;20065;-73
2021/12/17 07:01:06;;;;;;;16.20;11.13;;;10.10;97.50;;;;;;5066207;28;20029;-73
2021/12/17 07:06:39;;;;;;;20.30;13.25;;;10.10;98.20;;;;;;5076702;28;20202;-75
2021/12/17 07:17:10;;;;;;;15.18;10.70;;;10.20;97.60;;;;;;5078745;28;20357;-74
2021/12/17 07:17:32;;;;;;;18.10;11.80;;;10.20;97.80;;;;;;5079134;28;20021;-72
2021/12/17 07:22:49;;;;;;;18.30;11.05;;;10.20;97.40;;;;;;5078821;28;20070;-74
2021/12/17 07:28:11;;;;;;;18.55;12.30;;;10.20;97.90;;;;;;5078588;28;19930;-73
2021/12/17 07:33:35;;;;;;;20.88;13.00;;;10.20;97.80;;;;;;5061450;28;20053;-75
2021/12/17 07:36:09;;;;;;;19.40;13.07;;;10.20;98.20;;;;;;5062849;28;20025;-74
2021/12/17 07:38:38;;;;;;;18.27;12.32;;;10.20;98.10;;;;;;5063372;28;20025;-74
2021/12/17 07:41:04;;;;;;;24.27;12.07;;;10.20;97.80;;;;;;5063521;28;20043;-74
2021/12/17 07:43:38;;;;;;;19.88;11.63;;;10.20;97.70;;;;;;5079103;28;20215;-72
2021/12/17 07:46:08;;;;;;;18.63;11.32;;;10.20;98.00;;;;;;5066679;28;20020;-75
2021/12/17 07:48:34;;;;;;;15.63;10.95;;;10.20;97.80;;;;;;5082266;28;20052;-75
2021/12/17 07:51:03;;;;;;;19.25;11.23;;;10.20;97.30;;;;;;5083416;28;20256;-74
2021/12/17 07:53:30;;;;;;;18.83;11.35;;;10.20;97.40;;;;;;5083680;28;20238;-72
2021/12/17 07:55:56;;;;;;;18.92;12.07;;;10.20;97.70;;;;;;5081820;28;20028;-73
2021/12/17 07:58:22;;;;;;;15.32;11.07;;;10.20;97.70;;;;;;5082413;28;20024;-74
2021/12/17 08:00:47;;;;;;;16.83;10.07;;;10.20;97.30;;;;;;5081855;28;20028;-72
2021/12/17 08:03:14;;;;;;;19.48;11.30;;;10.10;97.00;;;;;;5083221;28;20040;-74
2021/12/17 08:05:42;;;;;;;20.92;11.23;;;10.20;97.60;;;;;;5083160;28;20382;-74
2021/12/17 08:08:09;;;;;;;17.65;11.10;;;10.20;97.80;;;;;;5080471;28;20021;-73
2021/12/17 08:10:35;;;;;;;21.20;11.63;;;10.20;97.50;;;;;;5077982;28;20029;-72
2021/12/17 08:13:00;;;;;;;25.08;11.82;;;10.20;97.50;;;;;;5071233;28;20048;-72
2021/12/17 08:15:32;;;;;;;25.33;12.18;;;10.20;97.90;;;;;;5074920;28;20031;-72
2021/12/17 08:26:26;;;;;;;19.23;12.07;;;10.20;97.40;;;;;;5055277;28;20406;-74
2021/12/17 08:29:07;;;;;;;19.50;11.75;;;10.20;97.60;;;;;;5072627;28;20033;-74
2021/12/17 08:31:34;;;;;;;21.00;11.65;;;10.30;97.30;;;;;;5084388;28;20099;-75
2021/12/17 08:34:02;;;;;;;23.70;12.35;;;10.20;96.90;;;;;;5074938;28;20100;-74
2021/12/17 08:36:29;;;;;;;18.50;12.13;;;10.20;97.40;;;;;;5074604;28;20036;-74
2021/12/17 08:38:54;;;;;;;18.33;11.52;;;10.20;97.80;;;;;;5069192;28;20036;-71
2021/12/17 08:41:21;;;;;;;22.00;13.25;;;10.20;97.20;;;;;;5083817;28;20030;-73
2021/12/17 08:43:48;;;;;;;20.33;12.23;;;10.20;97.20;;;;;;5076196;28;20212;-73
2021/12/17 08:46:14;;;;;;;18.80;12.25;;;10.30;97.70;;;;;;5077728;28;20269;-73
2021/12/17 08:48:40;;;;;;;19.17;12.60;;;10.30;97.50;;;;;;5072767;28;20025;-72
2021/12/17 08:51:07;;;;;;;15.23;10.95;;;10.30;97.20;;;;;;5075108;28;20402;-71
2021/12/17 08:53:34;;;;;;;20.90;11.65;;;10.30;96.80;;;;;;5075890;28;20330;-72
2021/12/17 08:56:01;;;;;;;22.35;12.40;;;10.30;97.10;;;;;;5071698;28;20024;-76
2021/12/17 08:58:26;;;;;;;18.13;10.27;;;10.30;97.30;;;;;;5075048;28;20403;-77
2021/12/17 09:00:52;;;;;;;18.90;11.77;;;10.30;96.80;;;;;;5078225;28;20013;-77
2021/12/17 09:03:18;;;;;;;21.92;12.23;;;10.20;97.00;;;;;;5054753;28;20360;-77
2021/12/17 09:05:45;;;;;;;20.48;12.57;;;10.20;97.00;;;;;;5078896;28;20016;-75
2021/12/17 09:08:11;;;;;;;20.35;12.27;;;10.30;97.40;;;;;;5076962;28;20036;-74
2021/12/17 09:10:38;;;;;;;20.38;13.02;;;10.40;97.00;;;;;;5076791;28;20029;-75
2021/12/17 09:13:05;;;;;;;17.58;11.75;;;10.40;96.90;;;;;;5083776;28;20008;-74
2021/12/17 09:15:31;;;;;;;22.48;12.63;;;10.40;96.80;;;;;;5097169;28;20059;-75
2021/12/17 09:17:57;;;;;;;21.75;13.32;;;10.40;97.30;;;;;;5090400;28;20311;-77
2021/12/17 09:20:23;;;;;;;22.08;11.77;;;10.40;97.10;;;;;;5070739;28;20106;-76
2021/12/17 09:22:49;;;;;;;20.95;11.90;;;10.50;97.00;;;;;;5067713;28;20339;-77
2021/12/17 09:25:18;;;;;;;24.67;12.88;;;10.40;96.80;;;;;;5074254;28;20032;-76
2021/12/17 09:27:44;;;;;;;18.85;11.05;;;10.40;97.30;;;;;;5078164;28;20080;-76
2021/12/17 09:30:14;;;;;;;19.30;12.02;;;10.40;96.80;;;;;;5074053;28;20024;-75
2021/12/17 09:32:41;;;;;;;19.17;11.60;;;10.40;96.70;;;;;;5074262;28;20035;-75
2021/12/17 09:35:08;;;;;;;18.40;11.63;;;10.50;96.40;;;;;;5068799;28;20046;-76
2021/12/17 09:37:34;;;;;;;19.13;11.00;;;10.50;97.00;;;;;;5073482;28;20024;-77
2021/12/17 09:40:00;;;;;;;17.15;10.77;;;10.50;96.70;;;;;;5066129;28;20040;-78
2021/12/17 09:42:27;;;;;;;19.05;9.73;;;10.50;96.40;;;;;;5074226;28;20031;-77
2021/12/17 09:44:53;;;;;;;18.50;10.65;;;10.50;96.30;;;;;;5075318;28;20535;-79
2021/12/17 09:47:20;;;;;;;18.65;10.57;;;10.50;96.50;;;;;;5073572;28;20021;-79
2021/12/17 09:49:46;;;;;;;18.73;10.55;;;10.50;96.60;;;;;;5075379;28;20033;-76
2021/12/17 09:52:12;;;;;;;22.95;11.00;;;10.60;96.20;;;;;;5076232;28;20028;-75
2021/12/17 09:54:38;;;;;;;17.85;10.80;;;10.60;96.30;;;;;;5074464;28;20074;-76
2021/12/17 09:57:04;;;;;;;19.25;12.02;;;10.50;96.50;;;;;;5074493;28;20024;-75
2021/12/17 09:59:30;;;;;;;17.90;11.07;;;10.60;96.70;;;;;;5074901;28;20107;-75
2021/12/17 10:01:56;;;;;;;17.30;10.88;;;10.60;96.50;;;;;;5075777;28;20035;-75
2021/12/17 10:04:28;;;;;;;20.40;10.88;;;10.50;96.10;;;;;;5074551;28;20044;-77
2021/12/17 10:07:16;;;;;;;14.43;10.00;;;10.50;96.40;;;;;;5079300;28;20024;-76
2021/12/17 10:10:00;;;;;;;20.23;10.57;;;10.50;96.40;;;;;;5063884;28;20099;-75
2021/12/17 10:12:28;;;;;;;14.40;10.00;;;10.50;96.20;;;;;;5075098;28;20028;-76
2021/12/17 10:15:16;;;;;;;18.85;11.52;;;10.50;96.20;;;;;;5099277;28;20032;-76
2021/12/17 10:18:00;;;;;;;24.98;10.88;;;10.50;96.30;;;;;;5071567;28;20337;-77
2021/12/17 10:20:29;;;;;;;16.45;9.93;;;10.60;96.80;;;;;;5057059;28;20090;-79
2021/12/17 10:23:05;;;;;;;11.82;8.23;;;10.60;95.90;;;;;;5062401;28;20104;-77
2021/12/17 10:25:32;;;;;;;18.77;9.50;;;10.50;95.60;;;;;;5076270;28;20088;-78
2021/12/17 10:28:03;;;;;;;13.95;9.25;;;10.50;95.90;;;;;;5072197;28;20323;-75
2021/12/17 10:30:31;;;;;;;16.65;10.40;;;10.60;96.30;;;;;;5055533;28;20095;-77
2021/12/17 10:33:00;;;;;;;14.70;9.25;;;10.60;96.10;;;;;;5072480;28;20048;-78
2021/12/17 10:35:29;;;;;;;16.77;9.65;;;10.70;95.70;;;;;;5054789;28;20021;-77
2021/12/17 10:38:00;;;;;;;15.38;8.40;;;10.60;95.60;;;;;;5073976;28;20020;-76
2021/12/17 10:40:29;;;;;;;16.85;8.93;;;10.50;95.60;;;;;;5072593;28;20228;-76
2021/12/17 10:43:07;;;;;;;14.88;8.57;;;10.50;95.40;;;;;;5055399;28;20036;-79
2021/12/17 10:45:37;;;;;;;15.50;9.18;;;10.50;95.80;;;;;;5072141;28;20024;-78
2021/12/17 10:51:16;;;;;;;17.98;9.57;;;10.60;95.80;;;;;;5063984;28;20291;-76
2021/12/17 10:53:50;;;;;;;17.55;9.70;;;10.60;95.50;;;;;;5078253;28;20034;-76
2021/12/17 10:56:17;;;;;;;13.70;9.07;;;10.60;95.60;;;;;;5089480;28;20020;-74
2021/12/17 10:59:01;;;;;;;17.40;9.25;;;10.60;95.50;;;;;;5070390;28;20029;-76
2021/12/17 11:01:31;;;;;;;15.90;9.93;;;10.70;96.10;;;;;;5072932;28;20055;-75
2021/12/17 11:04:18;;;;;;;15.80;9.98;;;10.70;95.60;;;;;;5069885;28;20093;-78
2021/12/17 11:06:51;;;;;;;13.82;8.88;;;10.80;95.50;;;;;;5075643;28;20070;-76
2021/12/17 11:09:59;;;;;;;17.17;9.38;;;10.80;95.40;;;;;;5068736;28;20017;-75
2021/12/17 11:12:39;;;;;;;13.93;8.18;;;10.80;95.40;;;;;;5073490;28;20100;-75
2021/12/17 11:15:18;;;;;;;13.05;8.75;;;10.80;95.30;;;;;;5070757;28;20035;-76
2021/12/17 11:17:46;;;;;;;15.85;10.00;;;10.80;95.30;;;;;;5069475;28;20040;-78
2021/12/17 11:20:17;;;;;;;14.48;8.98;;;10.80;95.60;;;;;;5076277;28;20036;-76
2021/12/17 11:22:44;;;;;;;16.37;8.03;;;10.80;95.40;;;;;;5070676;28;20040;-76
2021/12/17 11:25:14;;;;;;;12.23;7.82;;;10.80;95.00;;;;;;5076437;28;20035;-76
2021/12/17 11:27:41;;;;;;;16.52;10.15;;;10.80;95.00;;;;;;5053245;28;20043;-77
2021/12/17 11:30:11;;;;;;;13.13;8.95;;;10.80;95.10;;;;;;5072472;28;20365;-76
2021/12/17 11:32:42;;;;;;;18.85;9.75;;;10.80;95.30;;;;;;5084418;28;20032;-76
2021/12/17 11:35:09;;;;;;;24.20;11.48;;;10.80;95.30;;;;;;5071082;28;20020;-75
2021/12/17 11:37:35;;;;;;;23.65;15.77;;;10.90;95.20;;;;;;5072697;28;20029;-76
2021/12/17 11:40:07;;;;;;;18.02;11.07;;;10.90;95.10;;;;;;5059187;28;20033;-76
2021/12/17 11:42:54;;;;;;;;;;;10.90;95.10;;;;;;5074263;28;20021;-76
2021/12/17 11:45:25;;;;;;;16.73;10.20;;;10.90;94.90;;;;;;5065672;28;19912;-75
2021/12/17 11:47:54;;;;;;;15.50;9.30;;;10.80;94.70;;;;;;5073417;28;20027;-75
2021/12/17 11:50:23;;;;;;;13.18;9.52;;;10.80;95.00;;;;;;5049826;28;20041;-78
2021/12/17 11:52:53;;;;;;;13.50;9.02;;;10.70;95.10;;;;;;5077542;28;20078;-76
2021/12/17 11:55:36;;;;;;;12.82;9.60;;;10.80;95.30;;;;;;5041543;28;20040;-78
2021/12/17 11:58:08;;;;;;;14.30;8.95;;;10.70;95.00;;;;;;5079010;28;20078;-77
2021/12/17 12:00:50;;;;;;;16.20;9.75;;;10.80;95.10;;;;;;5060767;28;20033;-77
2021/12/17 12:03:19;;;;;;;12.50;8.63;;;10.80;95.20;;;;;;5076783;28;20041;-78
2021/12/17 12:05:49;;;;;;;15.55;9.25;;;10.80;95.40;;;;;;5076741;28;20024;-77
2021/12/17 12:08:53;;;;;;;20.92;10.65;;;10.90;95.10;;;;;;5066346;28;20013;-75
2021/12/17 12:11:26;;;;;;;14.63;10.40;;;10.90;94.90;;;;;;5069584;28;20016;-77
2021/12/17 12:13:54;;;;;;;14.93;10.65;;;10.90;94.90;;;;;;5074636;28;20041;-77
2021/12/17 12:16:23;;;;;;;14.65;9.55;;;10.90;95.40;;;;;;5049722;28;20029;-77
2021/12/17 12:18:51;;;;;;;15.25;10.07;;;10.90;95.00;;;;;;5075886;28;20064;-77
2021/12/17 12:21:20;;;;;;;13.70;9.77;;;10.90;94.80;;;;;;5084484;28;20223;-77
2021/12/17 12:23:51;;;;;;;17.85;10.65;;;10.90;94.90;;;;;;5078637;28;20312;-77
2021/12/17 12:26:23;;;;;;;16.23;10.60;;;10.90;95.30;;;;;;5073820;28;20316;-76
2021/12/17 12:28:56;;;;;;;15.30;10.18;;;11.00;95.20;;;;;;5075683;28;20124;-76
2021/12/17 12:31:44;;;;;;;19.10;10.45;;;11.00;95.10;;;;;;5076140;28;20040;-76
2021/12/17 12:34:13;;;;;;;17.92;11.35;;;11.10;94.90;;;;;;5079773;28;20020;-76
2021/12/17 12:36:58;;;;;;;17.15;10.80;;;11.20;95.20;;;;;;5074796;28;20035;-75
2021/12/17 12:40:03;;;;;;;14.75;10.27;;;11.10;94.90;;;;;;5070277;28;20032;-75
2021/12/17 12:42:32;;;;;;;15.27;10.07;;;11.10;94.80;;;;;;5074010;28;20045;-76
2021/12/17 12:45:14;;;;;;;16.42;11.32;;;11.10;94.80;;;;;;5071309;28;20031;-76
2021/12/17 12:47:42;;;;;;;;;;;11.00;95.30;;;;;;5093314;28;20210;-76
2021/12/17 12:50:11;;;;;;;18.50;11.40;;;11.00;94.80;;;;;;5077262;28;19951;-75
2021/12/17 12:52:45;;;;;;;16.98;11.50;;;10.90;95.00;;;;;;5075057;28;20025;-75
2021/12/17 12:55:20;;;;;;;18.70;11.88;;;10.90;94.70;;;;;;5075180;28;20326;-77
2021/12/17 12:58:08;;;;;;;19.80;11.63;;;11.00;95.30;;;;;;5075900;28;20315;-76
2021/12/17 13:00:58;;;;;;;17.23;11.80;;;11.00;95.00;;;;;;5084421;28;20319;-76
2021/12/17 13:03:30;;;;;;;19.33;12.30;;;11.10;94.80;;;;;;5058288;28;20067;-74
2021/12/17 13:05:59;;;;;;;16.45;12.15;;;11.00;95.00;;;;;;5057180;28;20048;-75
2021/12/17 13:08:26;;;;;;;21.55;12.90;;;11.00;95.00;;;;;;5060632;28;20315;-77
2021/12/17 13:10:55;;;;;;;22.45;12.50;;;11.00;95.30;;;;;;5075005;28;20058;-75
2021/12/17 13:13:34;;;;;;;22.20;13.98;;;10.90;95.00;;;;;;5072469;28;20054;-73
2021/12/17 13:16:15;;;;;;;21.83;14.70;;;10.90;95.00;;;;;;5075622;28;20224;-73
2021/12/17 13:21:35;;;;;;;22.52;14.38;;;10.80;95.60;;;;;;5075700;28;20091;-76
2021/12/17 13:24:13;;;;;;;30.30;17.02;;;10.80;95.10;;;;;;5072984;28;20099;-77
2021/12/17 13:26:57;;;;;;;19.48;13.82;;;10.80;95.30;;;;;;5057698;28;20033;-76
2021/12/17 13:29:30;;;;;;;20.98;13.82;;;10.90;95.50;;;;;;5072186;28;20025;-74
2021/12/17 13:32:05;;;;;;;20.52;14.50;;;10.90;95.50;;;;;;5074093;28;20299;-75
2021/12/17 13:34:34;;;;;;;19.88;13.73;;;10.90;95.30;;;;;;5076546;28;20032;-75
2021/12/17 13:37:22;;;;;;;20.02;13.77;;;10.80;95.40;;;;;;5060671;28;20020;-76
2021/12/17 13:40:11;;;;;;;21.55;14.02;;;10.90;95.60;;;;;;5082429;28;20040;-77
2021/12/17 13:42:42;;;;;;;21.67;13.18;;;11.00;95.90;;;;;;5073447;28;20024;-77
2021/12/17 13:45:20;;;;;;;21.73;13.57;;;11.00;95.40;;;;;;5074167;28;20032;-77
2021/12/17 13:47:50;;;;;;;29.02;14.48;;;10.90;95.40;;;;;;5057548;28;20021;-75
2021/12/17 13:50:34;;;;;;;25.38;14.40;;;10.80;95.60;;;;;;5074406;28;20024;-76
2021/12/17 13:53:05;;;;;;;19.92;13.20;;;10.80;95.90;;;;;;5072936;28;20020;-77
2021/12/17 13:55:38;;;;;;;24.10;13.65;;;10.80;95.70;;;;;;5075571;28;20032;-76
2021/12/17 13:58:11;;;;;;;20.38;12.40;;;10.70;95.40;;;;;;5071490;28;20131;-76
2021/12/17 14:00:43;;;;;;;17.85;12.35;;;10.80;95.60;;;;;;5075551;28;20037;-76
2021/12/17 14:03:11;;;;;;;24.67;12.20;;;10.70;95.70;;;;;;5072627;28;20020;-76
2021/12/17 14:05:44;;;;;;;20.95;11.93;;;10.80;95.30;;;;;;5068787;28;20021;-76
2021/12/17 14:08:12;;;;;;;17.77;13.35;;;10.70;95.40;;;;;;5083464;28;20521;-75
2021/12/17 14:10:39;;;;;;;17.40;11.77;;;10.70;95.50;;;;;;5071912;28;20035;-76
2021/12/17 14:13:14;;;;;;;13.07;9.35;;;10.70;95.40;;;;;;5071925;28;20028;-76
2021/12/17 14:15:41;;;;;;;17.35;10.45;;;10.70;95.10;;;;;;5074753;28;20335;-74
2021/12/17 14:18:11;;;;;;;18.55;10.23;;;10.60;95.10;;;;;;5073114;28;20019;-76
2021/12/17 14:20:45;;;;;;;17.60;10.23;;;10.50;95.20;;;;;;5050340;28;20086;-76
2021/12/17 14:23:16;;;;;;;13.13;9.50;;;10.60;95.50;;;;;;5081583;28;20046;-76
2021/12/17 14:25:44;;;;;;;16.20;9.70;;;10.50;95.20;;;;;;5063670;28;20242;-75
2021/12/17 14:28:16;;;;;;;15.30;9.07;;;10.50;95.20;;;;;;5067349;28;20028;-78
2021/12/17 14:30:45;;;;;;;16.30;9.88;;;10.50;95.40;;;;;;5072558;28;20070;-77
2021/12/17 14:33:16;;;;;;;14.15;9.07;;;10.50;95.50;;;;;;5068906;28;20025;-77
2021/12/17 14:36:00;;;;;;;16.05;8.70;;;10.50;95.40;;;;;;5073417;28;20016;-78
2021/12/17 14:38:48;;;;;;;17.83;9.15;;;10.50;95.30;;;;;;5071882;28;20020;-75
2021/12/17 14:41:32;;;;;;;14.75;9.05;;;10.50;95.20;;;;;;5077200;28;20080;-75
2021/12/17 14:44:12;;;;;;;12.40;7.95;;;10.50;95.60;;;;;;5080204;28;20017;-75
2021/12/17 14:46:49;;;;;;;12.32;8.32;;;10.40;95.60;;;;;;5072455;28;20065;-75
2021/12/17 14:57:14;;;;;;;11.65;8.27;;;10.40;95.40;;;;;;5071873;28;20078;-76
2021/12/17 14:59:03;;;;;;;11.93;8.77;;;10.40;95.70;;;;;;5075654;28;20029;-74
2021/12/17 15:06:13;;;;;;;11.23;7.95;;;10.40;95.80;;;;;;5070287;28;20024;-77
2021/12/17 15:08:39;;;;;;;10.60;8.43;;;10.40;95.60;;;;;;5054006;28;20077;-76
2021/12/17 15:11:15;;;;;;;15.05;8.93;;;10.30;95.50;;;;;;5065301;28;20016;-77
2021/12/17 15:13:41;;;;;;;13.02;8.10;;;10.30;95.60;;;;;;5080467;28;20034;-75
2021/12/17 15:16:07;;;;;;;14.05;7.75;;;10.30;96.00;;;;;;5083472;28;20052;-77
2021/12/17 15:18:33;;;;;;;12.48;8.70;;;10.30;95.80;;;;;;5081276;28;20085;-77
2021/12/17 15:20:59;;;;;;;12.75;7.65;;;10.30;95.70;;;;;;5097977;28;20147;-76
2021/12/17 15:23:25;;;;;;;15.45;8.73;;;10.20;95.70;;;;;;5078286;28;20222;-76